PWSweather.com
Personal Weather Stations
Station Observations
79674
AfterstegDE 79674

AfterstegDE 79674

Lat: 47.84344, Lon: 7.92844

Elevation: 809

Station Type: Davis Vantage 2 Aktive

Latest ConditionsUpdated 8:37:23 AM GMT+01:01 Sunday, Feb 26, 2017
Currently Today's Max Today's Min Today's Average
Temperature 35.8°F2.1°C 35.8°F2.1°C 32.4°F0.2°C 33.3°F0.7°C
Dew Point 29.8°F-1.2°C 29.8°F-1.2°C 26.2°F-3.2°C 27.0°F-2.8°C
Winds Calm Calm 0.9 mph ESE1.4 kmh ESE - 0.0 mph 0.0 kmh
Wind Gusts -- 2.0 mph3.2 kmh - -
Humidity 79% 81% 74% 78%
Pressure 30.14 in1020.7 mb 30.18 in1022.0 mb 30.13 in1020.3 mb -
Hour Temp Dew Point Humidity Winds Wind Gusts Pressure Precip Precip Rate Daily Precip Total
08:37 AM 35.8°F2.1°C 29.8°F-1.2°C 79% Calm Calm -- 30.14 in1020.7 mb - 0.00 in0.0 mm 0.00 in0.0 mm
08:32 AM 35.4°F1.9°C 29.8°F-1.2°C 80% Calm Calm -- 30.14 in1020.7 mb - 0.00 in0.0 mm 0.00 in0.0 mm
08:27 AM 35.2°F1.8°C 29.7°F-1.3°C 80% Calm Calm -- 30.15 in1021.0 mb - 0.00 in0.0 mm 0.00 in0.0 mm
08:22 AM 34.7°F1.5°C 29.5°F-1.4°C 81% Calm Calm -- 30.15 in1021.0 mb - 0.00 in0.0 mm 0.00 in0.0 mm
08:17 AM 34.3°F1.3°C 29.1°F-1.6°C 81% Calm Calm -- 30.14 in1020.7 mb - 0.00 in0.0 mm 0.00 in0.0 mm
08:12 AM 34.3°F1.3°C 28.8°F-1.8°C 80% Calm Calm 0.9 mph1.4 kmh 30.14 in1020.7 mb - 0.00 in0.0 mm 0.00 in0.0 mm
08:07 AM 34.3°F1.3°C 28.8°F-1.8°C 80% Calm Calm -- 30.14 in1020.7 mb - 0.00 in0.0 mm 0.00 in0.0 mm
08:02 AM 34.3°F1.3°C 28.8°F-1.8°C 80% Calm Calm 0.9 mph1.4 kmh 30.14 in1020.7 mb - 0.00 in0.0 mm 0.00 in0.0 mm
07:57 AM 34.3°F1.3°C 28.8°F-1.8°C 80% 0.9 mph NW1.4 kmh NW -- 30.14 in1020.7 mb - 0.00 in0.0 mm 0.00 in0.0 mm
07:52 AM 34.2°F1.2°C 28.6°F-1.9°C 80% 0.9 mph NW1.4 kmh NW -- 30.14 in1020.7 mb - 0.00 in0.0 mm 0.00 in0.0 mm
07:47 AM 34.0°F1.1°C 28.4°F-2.0°C 80% Calm Calm -- 30.14 in1020.7 mb - 0.00 in0.0 mm 0.00 in0.0 mm
07:42 AM 34.0°F1.1°C 28.2°F-2.1°C 79% Calm Calm -- 30.14 in1020.7 mb - 0.00 in0.0 mm 0.00 in0.0 mm
07:37 AM 33.4°F0.8°C 27.9°F-2.3°C 80% Calm Calm -- 30.14 in1020.7 mb - 0.00 in0.0 mm 0.00 in0.0 mm
07:32 AM 33.4°F0.8°C 27.9°F-2.3°C 80% Calm Calm -- 30.13 in1020.3 mb - 0.00 in0.0 mm 0.00 in0.0 mm
07:27 AM 33.4°F0.8°C 28.2°F-2.1°C 81% Calm Calm -- 30.13 in1020.3 mb - 0.00 in0.0 mm 0.00 in0.0 mm
07:22 AM 32.7°F0.4°C 27.5°F-2.5°C 81% Calm Calm -- 30.14 in1020.7 mb - 0.00 in0.0 mm 0.00 in0.0 mm
07:17 AM 33.1°F0.6°C 27.5°F-2.5°C 80% Calm Calm -- 30.13 in1020.3 mb - 0.00 in0.0 mm 0.00 in0.0 mm
07:12 AM 33.1°F0.6°C 27.5°F-2.5°C 80% 0.9 mph ESE1.4 kmh ESE -- 30.13 in1020.3 mb - 0.00 in0.0 mm 0.00 in0.0 mm
07:07 AM 32.9°F0.5°C 27.5°F-2.5°C 80% Calm Calm -- 30.13 in1020.3 mb - 0.00 in0.0 mm 0.00 in0.0 mm
07:02 AM 32.7°F0.4°C 27.0°F-2.8°C 79% Calm Calm 2.0 mph3.2 kmh 30.13 in1020.3 mb - 0.00 in0.0 mm 0.00 in0.0 mm
06:57 AM 32.7°F0.4°C 27.0°F-2.8°C 79% Calm Calm -- 30.13 in1020.3 mb - 0.00 in0.0 mm 0.00 in0.0 mm
06:52 AM 32.7°F0.4°C 26.6°F-3.0°C 78% Calm Calm -- 30.13 in1020.3 mb - 0.00 in0.0 mm 0.00 in0.0 mm
06:47 AM 33.1°F0.6°C 27.0°F-2.8°C 78% Calm Calm -- 30.13 in1020.3 mb - 0.00 in0.0 mm 0.00 in0.0 mm
06:42 AM 33.1°F0.6°C 27.0°F-2.8°C 78% Calm Calm -- 30.13 in1020.3 mb - 0.00 in0.0 mm 0.00 in0.0 mm
06:37 AM 33.1°F0.6°C 27.3°F-2.6°C 79% Calm Calm -- 30.13 in1020.3 mb - 0.00 in0.0 mm 0.00 in0.0 mm
06:32 AM 33.1°F0.6°C 27.3°F-2.6°C 79% Calm Calm -- 30.13 in1020.3 mb - 0.00 in0.0 mm 0.00 in0.0 mm
06:27 AM 32.9°F0.5°C 27.1°F-2.7°C 79% Calm Calm -- 30.13 in1020.3 mb - 0.00 in0.0 mm 0.00 in0.0 mm
06:22 AM 32.7°F0.4°C 27.3°F-2.6°C 80% Calm Calm -- 30.13 in1020.3 mb - 0.00 in0.0 mm 0.00 in0.0 mm
06:17 AM 32.7°F0.4°C 27.3°F-2.6°C 80% Calm Calm -- 30.13 in1020.3 mb - 0.00 in0.0 mm 0.00 in0.0 mm
06:12 AM 32.5°F0.3°C 27.1°F-2.7°C 80% Calm Calm -- 30.13 in1020.3 mb - 0.00 in0.0 mm 0.00 in0.0 mm
06:07 AM 32.5°F0.3°C 26.8°F-2.9°C 79% Calm Calm -- 30.13 in1020.3 mb - 0.00 in0.0 mm 0.00 in0.0 mm
06:02 AM 32.5°F0.3°C 26.8°F-2.9°C 79% Calm Calm -- 30.13 in1020.3 mb - 0.00 in0.0 mm 0.00 in0.0 mm
05:57 AM 32.5°F0.3°C 26.8°F-2.9°C 79% Calm Calm -- 30.13 in1020.3 mb - 0.00 in0.0 mm 0.00 in0.0 mm
05:52 AM 32.7°F0.4°C 26.6°F-3.0°C 78% Calm Calm -- 30.13 in1020.3 mb - 0.00 in0.0 mm 0.00 in0.0 mm
05:47 AM 33.1°F0.6°C 27.0°F-2.8°C 78% Calm Calm -- 30.13 in1020.3 mb - 0.00 in0.0 mm 0.00 in0.0 mm
05:42 AM 33.1°F0.6°C 27.0°F-2.8°C 78% Calm Calm -- 30.13 in1020.3 mb - 0.00 in0.0 mm 0.00 in0.0 mm
05:37 AM 33.3°F0.7°C 27.1°F-2.7°C 78% Calm Calm -- 30.13 in1020.3 mb - 0.00 in0.0 mm 0.00 in0.0 mm
05:32 AM 33.1°F0.6°C 26.6°F-3.0°C 77% Calm Calm -- 30.13 in1020.3 mb - 0.00 in0.0 mm 0.00 in0.0 mm
05:27 AM 33.1°F0.6°C 26.6°F-3.0°C 77% Calm Calm -- 30.14 in1020.7 mb - 0.00 in0.0 mm 0.00 in0.0 mm
05:22 AM 33.3°F0.7°C 26.8°F-2.9°C 77% Calm Calm -- 30.14 in1020.7 mb - 0.00 in0.0 mm 0.00 in0.0 mm
05:17 AM 33.4°F0.8°C 26.8°F-2.9°C 76% Calm Calm -- 30.13 in1020.3 mb - 0.00 in0.0 mm 0.00 in0.0 mm
05:12 AM 33.4°F0.8°C 26.8°F-2.9°C 76% Calm Calm -- 30.13 in1020.3 mb - 0.00 in0.0 mm 0.00 in0.0 mm
05:07 AM 33.4°F0.8°C 26.8°F-2.9°C 76% Calm Calm -- 30.13 in1020.3 mb - 0.00 in0.0 mm 0.00 in0.0 mm
05:02 AM 33.3°F0.7°C 26.8°F-2.9°C 77% Calm Calm -- 30.13 in1020.3 mb - 0.00 in0.0 mm 0.00 in0.0 mm
04:57 AM 33.3°F0.7°C 26.6°F-3.0°C 76% Calm Calm -- 30.13 in1020.3 mb - 0.00 in0.0 mm 0.00 in0.0 mm
04:52 AM 33.4°F0.8°C 26.4°F-3.1°C 75% Calm Calm -- 30.13 in1020.3 mb - 0.00 in0.0 mm 0.00 in0.0 mm
04:47 AM 33.4°F0.8°C 26.4°F-3.1°C 75% Calm Calm -- 30.13 in1020.3 mb - 0.00 in0.0 mm 0.00 in0.0 mm
04:42 AM 33.6°F0.9°C 26.2°F-3.2°C 74% Calm Calm -- 30.13 in1020.3 mb - 0.00 in0.0 mm 0.00 in0.0 mm
04:37 AM 33.6°F0.9°C 26.6°F-3.0°C 75% Calm Calm -- 30.13 in1020.3 mb - 0.00 in0.0 mm 0.00 in0.0 mm
04:32 AM 33.6°F0.9°C 26.2°F-3.2°C 74% Calm Calm -- 30.13 in1020.3 mb - 0.00 in0.0 mm 0.00 in0.0 mm
04:27 AM 33.6°F0.9°C 26.6°F-3.0°C 75% Calm Calm -- 30.13 in1020.3 mb - 0.00 in0.0 mm 0.00 in0.0 mm
04:22 AM 33.6°F0.9°C 26.6°F-3.0°C 75% Calm Calm -- 30.13 in1020.3 mb - 0.00 in0.0 mm 0.00 in0.0 mm
04:17 AM 33.8°F1.0°C 26.8°F-2.9°C 75% Calm Calm -- 30.13 in1020.3 mb - 0.00 in0.0 mm 0.00 in0.0 mm
04:12 AM 33.6°F0.9°C 26.6°F-3.0°C 75% Calm Calm -- 30.13 in1020.3 mb - 0.00 in0.0 mm 0.00 in0.0 mm
04:07 AM 33.6°F0.9°C 26.6°F-3.0°C 75% Calm Calm -- 30.13 in1020.3 mb - 0.00 in0.0 mm 0.00 in0.0 mm
04:02 AM 33.4°F0.8°C 26.8°F-2.9°C 76% Calm Calm -- 30.14 in1020.7 mb - 0.00 in0.0 mm 0.00 in0.0 mm
03:57 AM 33.4°F0.8°C 26.8°F-2.9°C 76% Calm Calm -- 30.14 in1020.7 mb - 0.00 in0.0 mm 0.00 in0.0 mm
03:52 AM 33.6°F0.9°C 26.6°F-3.0°C 75% Calm Calm -- 30.14 in1020.7 mb - 0.00 in0.0 mm 0.00 in0.0 mm
03:47 AM 33.8°F1.0°C 27.0°F-2.8°C 76% Calm Calm -- 30.14 in1020.7 mb - 0.00 in0.0 mm 0.00 in0.0 mm
03:42 AM 33.6°F0.9°C 26.8°F-2.9°C 76% Calm Calm -- 30.14 in1020.7 mb - 0.00 in0.0 mm 0.00 in0.0 mm
03:37 AM 33.6°F0.9°C 26.8°F-2.9°C 76% Calm Calm -- 30.14 in1020.7 mb - 0.00 in0.0 mm 0.00 in0.0 mm
03:32 AM 33.4°F0.8°C 26.4°F-3.1°C 75% Calm Calm -- 30.14 in1020.7 mb - 0.00 in0.0 mm 0.00 in0.0 mm
03:27 AM 33.4°F0.8°C 26.4°F-3.1°C 75% Calm Calm -- 30.14 in1020.7 mb - 0.00 in0.0 mm 0.00 in0.0 mm
03:22 AM 33.4°F0.8°C 26.4°F-3.1°C 75% Calm Calm -- 30.14 in1020.7 mb - 0.00 in0.0 mm 0.00 in0.0 mm
03:17 AM 33.4°F0.8°C 26.4°F-3.1°C 75% Calm Calm -- 30.14 in1020.7 mb - 0.00 in0.0 mm 0.00 in0.0 mm
03:12 AM 33.3°F0.7°C 26.6°F-3.0°C 76% Calm Calm -- 30.14 in1020.7 mb - 0.00 in0.0 mm 0.00 in0.0 mm
03:07 AM 33.4°F0.8°C 26.4°F-3.1°C 75% Calm Calm -- 30.14 in1020.7 mb - 0.00 in0.0 mm 0.00 in0.0 mm
03:02 AM 33.4°F0.8°C 26.4°F-3.1°C 75% Calm Calm -- 30.14 in1020.7 mb - 0.00 in0.0 mm 0.00 in0.0 mm
02:57 AM 33.4°F0.8°C 26.4°F-3.1°C 75% Calm Calm -- 30.14 in1020.7 mb - 0.00 in0.0 mm 0.00 in0.0 mm
02:52 AM 33.1°F0.6°C 26.4°F-3.1°C 76% Calm Calm -- 30.14 in1020.7 mb - 0.00 in0.0 mm 0.00 in0.0 mm
02:47 AM 33.1°F0.6°C 26.6°F-3.0°C 77% Calm Calm -- 30.14 in1020.7 mb - 0.00 in0.0 mm 0.00 in0.0 mm
02:42 AM 33.1°F0.6°C 26.6°F-3.0°C 77% Calm Calm -- 30.14 in1020.7 mb - 0.00 in0.0 mm 0.00 in0.0 mm
02:37 AM 33.1°F0.6°C 26.6°F-3.0°C 77% Calm Calm -- 30.14 in1020.7 mb - 0.00 in0.0 mm 0.00 in0.0 mm
02:32 AM 33.1°F0.6°C 26.6°F-3.0°C 77% Calm Calm -- 30.15 in1021.0 mb - 0.00 in0.0 mm 0.00 in0.0 mm
02:27 AM 32.9°F0.5°C 26.4°F-3.1°C 77% Calm Calm -- 30.15 in1021.0 mb - 0.00 in0.0 mm 0.00 in0.0 mm
02:22 AM 32.7°F0.4°C 26.2°F-3.2°C 77% Calm Calm -- 30.15 in1021.0 mb - 0.00 in0.0 mm 0.00 in0.0 mm
02:17 AM 32.7°F0.4°C 26.2°F-3.2°C 77% Calm Calm -- 30.15 in1021.0 mb - 0.00 in0.0 mm 0.00 in0.0 mm
02:12 AM 32.7°F0.4°C 26.2°F-3.2°C 77% Calm Calm -- 30.15 in1021.0 mb - 0.00 in0.0 mm 0.00 in0.0 mm
02:07 AM 32.7°F0.4°C 26.2°F-3.2°C 77% Calm Calm -- 30.15 in1021.0 mb - 0.00 in0.0 mm 0.00 in0.0 mm
02:02 AM 32.9°F0.5°C 26.4°F-3.1°C 77% Calm Calm -- 30.15 in1021.0 mb - 0.00 in0.0 mm 0.00 in0.0 mm
01:57 AM 32.7°F0.4°C 26.2°F-3.2°C 77% Calm Calm -- 30.15 in1021.0 mb - 0.00 in0.0 mm 0.00 in0.0 mm
01:52 AM 32.9°F0.5°C 26.4°F-3.1°C 77% Calm Calm -- 30.15 in1021.0 mb - 0.00 in0.0 mm 0.00 in0.0 mm
01:47 AM 32.9°F0.5°C 26.4°F-3.1°C 77% Calm Calm -- 30.15 in1021.0 mb - 0.00 in0.0 mm 0.00 in0.0 mm
01:42 AM 32.7°F0.4°C 26.2°F-3.2°C 77% Calm Calm -- 30.15 in1021.0 mb - 0.00 in0.0 mm 0.00 in0.0 mm
01:37 AM 32.9°F0.5°C 26.2°F-3.2°C 76% Calm Calm -- 30.15 in1021.0 mb - 0.00 in0.0 mm 0.00 in0.0 mm
01:32 AM 32.9°F0.5°C 26.4°F-3.1°C 77% Calm Calm -- 30.15 in1021.0 mb - 0.00 in0.0 mm 0.00 in0.0 mm
01:27 AM 32.7°F0.4°C 26.6°F-3.0°C 78% Calm Calm -- 30.15 in1021.0 mb - 0.00 in0.0 mm 0.00 in0.0 mm
01:22 AM 32.7°F0.4°C 26.2°F-3.2°C 77% Calm Calm -- 30.15 in1021.0 mb - 0.00 in0.0 mm 0.00 in0.0 mm
01:17 AM 32.7°F0.4°C 26.2°F-3.2°C 77% Calm Calm -- 30.15 in1021.0 mb - 0.00 in0.0 mm 0.00 in0.0 mm
01:12 AM 32.7°F0.4°C 26.2°F-3.2°C 77% Calm Calm -- 30.16 in1021.3 mb - 0.00 in0.0 mm 0.00 in0.0 mm
01:07 AM 33.1°F0.6°C 26.6°F-3.0°C 77% Calm Calm -- 30.16 in1021.3 mb - 0.00 in0.0 mm 0.00 in0.0 mm
01:02 AM 33.1°F0.6°C 26.6°F-3.0°C 77% Calm Calm -- 30.16 in1021.3 mb - 0.00 in0.0 mm 0.00 in0.0 mm
12:57 AM 33.1°F0.6°C 26.6°F-3.0°C 77% Calm Calm -- 30.17 in1021.7 mb - 0.00 in0.0 mm 0.00 in0.0 mm
12:52 AM 33.1°F0.6°C 26.6°F-3.0°C 77% Calm Calm -- 30.16 in1021.3 mb - 0.00 in0.0 mm 0.00 in0.0 mm
12:47 AM 32.9°F0.5°C 26.4°F-3.1°C 77% 0.9 mph ESE1.4 kmh ESE -- 30.17 in1021.7 mb - 0.00 in0.0 mm 0.00 in0.0 mm
12:42 AM 32.9°F0.5°C 26.4°F-3.1°C 77% 0.9 mph ESE1.4 kmh ESE -- 30.17 in1021.7 mb - 0.00 in0.0 mm 0.00 in0.0 mm
12:37 AM 33.1°F0.6°C 26.6°F-3.0°C 77% Calm Calm -- 30.17 in1021.7 mb - 0.00 in0.0 mm 0.00 in0.0 mm
12:32 AM 32.9°F0.5°C 26.8°F-2.9°C 78% Calm Calm -- 30.17 in1021.7 mb - 0.00 in0.0 mm 0.00 in0.0 mm
12:27 AM 32.9°F0.5°C 26.8°F-2.9°C 78% Calm Calm -- 30.17 in1021.7 mb - 0.00 in0.0 mm 0.00 in0.0 mm
12:22 AM 32.7°F0.4°C 26.6°F-3.0°C 78% Calm Calm -- 30.17 in1021.7 mb - 0.00 in0.0 mm 0.00 in0.0 mm
12:17 AM 32.5°F0.3°C 26.8°F-2.9°C 79% Calm Calm -- 30.17 in1021.7 mb - 0.00 in0.0 mm 0.00 in0.0 mm
12:12 AM 32.5°F0.3°C 26.4°F-3.1°C 78% Calm Calm -- 30.17 in1021.7 mb - 0.00 in0.0 mm 0.00 in0.0 mm
12:07 AM 32.5°F0.3°C 26.8°F-2.9°C 79% Calm Calm -- 30.18 in1022.0 mb - 0.00 in0.0 mm 0.02 in0.5 mm
12:02 AM 32.4°F0.2°C 26.6°F-3.0°C 79% Calm Calm -- 30.18 in1022.0 mb - 0.00 in0.0 mm 0.02 in0.5 mm